createdAt,value
2022-08-10T00:00:53.990Z,72.31
2022-08-10T00:01:54.307Z,72.41
2022-08-10T00:02:53.964Z,72.41
2022-08-10T00:03:53.959Z,72.85
2022-08-10T00:04:53.919Z,73.25
2022-08-10T00:05:53.931Z,73.45
2022-08-10T00:06:53.895Z,73.68
2022-08-10T00:07:53.967Z,73.88
2022-08-10T00:08:53.881Z,74.08
2022-08-10T00:09:53.882Z,73.99
2022-08-10T00:10:53.862Z,73.88
2022-08-10T00:11:53.839Z,73.99
2022-08-10T00:12:55.233Z,74.08
2022-08-10T00:13:53.809Z,73.99
2022-08-10T00:14:53.788Z,74.29
2022-08-10T00:15:55.247Z,74.93
2022-08-10T00:16:53.770Z,75.34
2022-08-10T00:17:53.751Z,75.34
2022-08-10T00:18:53.741Z,75.03
2022-08-10T00:20:04.178Z,74.79
2022-08-10T00:20:54.723Z,74.79
2022-08-10T00:21:53.712Z,74.93
2022-08-10T00:22:57.963Z,75.23
2022-08-10T00:23:53.695Z,75.34
2022-08-10T00:24:53.713Z,75.34
2022-08-10T00:25:53.663Z,75.34
2022-08-10T00:27:51.707Z,75.87
2022-08-10T00:28:02.726Z,76.48
2022-08-10T00:28:54.613Z,76.78
2022-08-10T00:29:53.592Z,76.92
2022-08-10T00:30:53.591Z,76.68
2022-08-10T00:31:56.036Z,76.58
2022-08-10T00:32:54.561Z,76.92
2022-08-10T00:33:53.554Z,76.78
2022-08-10T00:34:53.533Z,77.12
2022-08-10T00:35:53.523Z,77.42
2022-08-10T00:36:53.518Z,77.62
2022-08-10T00:37:56.147Z,77.42
2022-08-10T00:38:53.496Z,77.62
2022-08-10T00:39:53.537Z,77.93
2022-08-10T00:40:53.464Z,78.13
2022-08-10T00:42:06.687Z,78.13
2022-08-10T00:42:54.433Z,78.13
2022-08-10T00:43:53.437Z,78.33
2022-08-10T00:44:53.408Z,78.37
2022-08-10T00:45:58.877Z,78.37
2022-08-10T00:46:54.445Z,78.03
2022-08-10T00:47:53.382Z,78.23
2022-08-10T00:49:00.173Z,78.77
2022-08-10T00:49:54.345Z,79.28
2022-08-10T00:50:53.357Z,79.48
2022-08-10T00:51:53.316Z,79.48
2022-08-10T00:52:53.316Z,79.62
2022-08-10T00:53:53.307Z,79.38
2022-08-10T00:54:53.356Z,79.28
2022-08-10T00:57:14.045Z,78.97
2022-08-10T00:57:15.774Z,78.53
2022-08-10T00:57:55.526Z,77.93
2022-08-10T00:58:53.217Z,77.83
2022-08-10T00:59:58.628Z,78.43
2022-08-10T01:00:54.220Z,78.77
2022-08-10T01:02:08.380Z,79.17
2022-08-10T01:02:54.236Z,79.48
2022-08-10T01:04:54.541Z,79.28
2022-08-10T01:05:00.391Z,78.88
2022-08-10T01:05:54.117Z,78.43
2022-08-10T01:06:53.106Z,78.63
2022-08-10T01:07:53.130Z,79.17
2022-08-10T01:08:53.088Z,79.48
2022-08-10T01:09:56.815Z,79.62
2022-08-10T01:10:53.108Z,79.72
2022-08-10T01:12:47.588Z,79.58
2022-08-10T01:12:54.075Z,79.38
2022-08-10T01:13:53.007Z,79.28
2022-08-10T01:14:52.997Z,79.08
2022-08-10T01:15:52.998Z,79.08
2022-08-10T01:16:52.990Z,79.17
2022-08-10T01:17:52.979Z,79.48
2022-08-10T01:18:53.024Z,79.38
2022-08-10T01:19:52.948Z,79.08
2022-08-10T01:20:52.940Z,78.53
2022-08-10T01:21:56.734Z,78.53
2022-08-10T01:22:52.905Z,78.53
2022-08-10T01:23:52.889Z,78.33
2022-08-10T01:24:52.868Z,78.13
2022-08-10T01:26:11.946Z,77.83
2022-08-10T01:26:53.838Z,77.49
2022-08-10T01:27:52.829Z,77.39
2022-08-10T01:28:52.810Z,77.39
2022-08-10T01:29:52.799Z,77.08
2022-08-10T01:30:52.791Z,77.19
2022-08-10T01:31:52.791Z,77.73
2022-08-10T01:32:52.772Z,78.03
2022-08-10T01:33:58.378Z,77.93
2022-08-10T01:34:53.749Z,78.57
2022-08-10T01:35:52.740Z,78.77
2022-08-10T01:36:52.711Z,78.67
2022-08-10T01:37:52.771Z,78.67
2022-08-10T01:38:52.691Z,78.67
2022-08-10T01:39:52.754Z,79.17
2022-08-10T01:40:52.649Z,79.62
2022-08-10T01:41:52.652Z,79.28
2022-08-10T01:42:52.632Z,78.97
2022-08-10T01:43:52.620Z,79.28
2022-08-10T01:44:52.621Z,79.62
2022-08-10T01:45:52.591Z,80.12
2022-08-10T01:46:56.587Z,80.87
2022-08-10T01:47:52.572Z,81.48
2022-08-10T01:48:59.676Z,81.82
2022-08-10T01:49:52.576Z,81.92
2022-08-10T01:50:59.153Z,82.02
2022-08-10T01:51:53.548Z,82.12
2022-08-10T01:52:52.508Z,82.53
2022-08-10T01:53:52.500Z,82.87
2022-08-10T01:54:52.829Z,83.17
2022-08-10T01:55:52.466Z,82.83
2022-08-10T01:56:52.453Z,82.62
2022-08-10T01:57:52.512Z,82.42
2022-08-10T01:58:52.445Z,81.88
2022-08-10T01:59:54.536Z,81.37
2022-08-10T02:00:53.456Z,81.57
2022-08-10T02:01:52.419Z,82.02
2022-08-10T02:02:52.381Z,82.62
2022-08-10T02:04:05.202Z,82.93
2022-08-10T02:04:53.390Z,82.83
2022-08-10T02:05:52.337Z,82.83
2022-08-10T02:06:52.320Z,82.93
2022-08-10T02:07:52.318Z,82.42
2022-08-10T02:08:57.098Z,82.08
2022-08-10T02:09:53.287Z,81.78
2022-08-10T02:10:52.265Z,81.68
2022-08-10T02:12:07.735Z,81.68
2022-08-10T02:12:53.265Z,81.57
2022-08-10T02:13:52.232Z,81.27
2022-08-10T02:14:52.211Z,81.37
2022-08-10T02:16:02.238Z,81.27
2022-08-10T02:16:53.200Z,81.27
2022-08-10T02:18:00.968Z,81.68
2022-08-10T02:18:53.158Z,82.12
2022-08-10T02:19:52.149Z,82.73
2022-08-10T02:20:52.158Z,83.17
2022-08-10T02:22:38.058Z,83.37
2022-08-10T02:22:53.242Z,83.03
2022-08-10T02:23:54.129Z,82.83
2022-08-10T02:24:53.109Z,82.39
2022-08-10T02:25:52.108Z,81.98
2022-08-10T02:26:57.230Z,82.08
2022-08-10T02:27:53.061Z,82.62
2022-08-10T02:28:52.031Z,82.83
2022-08-10T02:29:52.021Z,83.03
2022-08-10T02:30:52.002Z,83.03
2022-08-10T02:31:52.001Z,83.33
2022-08-10T02:32:52.966Z,83.54
2022-08-10T02:33:57.175Z,83.54
2022-08-10T02:34:52.961Z,83.44
2022-08-10T02:35:54.204Z,83.74
2022-08-10T02:36:51.959Z,83.84
2022-08-10T02:37:51.920Z,83.64
2022-08-10T02:38:58.845Z,83.44
2022-08-10T02:39:52.902Z,83.33
2022-08-10T02:42:18.162Z,83.54
2022-08-10T02:45:16.072Z,83.94
2022-08-10T02:45:19.857Z,83.84
2022-08-10T02:45:24.427Z,83.98
2022-08-10T02:45:29.092Z,83.84
2022-08-10T02:45:52.822Z,84.28
2022-08-10T02:46:51.803Z,84.69
2022-08-10T02:47:52.654Z,84.48
2022-08-10T02:48:51.774Z,84.79
2022-08-10T02:49:51.769Z,84.89
2022-08-10T02:50:51.730Z,85.33
2022-08-10T02:52:06.747Z,85.54
2022-08-10T02:52:52.714Z,85.74
2022-08-10T02:53:57.106Z,85.74
2022-08-10T02:54:52.692Z,85.44
2022-08-10T02:55:51.711Z,84.99
2022-08-10T02:56:51.651Z,84.79
2022-08-10T02:58:16.786Z,84.39
2022-08-10T02:58:52.648Z,84.48
2022-08-10T02:59:51.651Z,84.93
2022-08-10T03:00:51.708Z,85.33
2022-08-10T03:01:51.612Z,85.44
2022-08-10T03:02:51.594Z,85.44
2022-08-10T03:03:51.595Z,85.19
2022-08-10T03:04:57.040Z,84.79
2022-08-10T03:05:52.544Z,84.39
2022-08-10T03:06:51.546Z,84.39
2022-08-10T03:07:51.515Z,84.39
2022-08-10T03:08:51.492Z,84.34
2022-08-10T03:09:51.492Z,84.04
2022-08-10T03:10:51.475Z,83.64
2022-08-10T03:12:35.008Z,83.19
2022-08-10T03:12:52.881Z,83.33
2022-08-10T03:13:52.817Z,83.64
2022-08-10T03:14:52.436Z,83.84
2022-08-10T03:15:51.476Z,83.64
2022-08-10T03:16:51.394Z,83.54
2022-08-10T03:17:56.860Z,83.74
2022-08-10T03:18:52.375Z,83.94
2022-08-10T03:20:34.944Z,84.04
2022-08-10T03:20:52.366Z,83.94
2022-08-10T03:21:51.424Z,83.94
2022-08-10T03:22:51.337Z,83.74
2022-08-10T03:23:51.319Z,83.44
2022-08-10T03:24:51.305Z,83.09
2022-08-10T03:25:53.237Z,82.79
2022-08-10T03:26:51.283Z,82.59
2022-08-10T03:27:51.256Z,82.89
2022-08-10T03:28:51.257Z,83.33
2022-08-10T03:30:31.705Z,83.74
2022-08-10T03:30:52.245Z,84.39
2022-08-10T03:31:51.225Z,84.59
2022-08-10T03:32:51.186Z,84.48
2022-08-10T03:33:51.175Z,84.28
2022-08-10T03:34:51.167Z,84.19
2022-08-10T03:36:43.620Z,84.39
2022-08-10T03:36:52.136Z,84.48
2022-08-10T03:37:51.139Z,84.93
2022-08-10T03:38:52.118Z,85.54
2022-08-10T03:39:51.157Z,86.08
2022-08-10T03:40:51.118Z,86.19
2022-08-10T03:41:53.654Z,86.29
2022-08-10T03:42:51.089Z,86.49
2022-08-10T03:43:51.047Z,86.25
2022-08-10T03:44:51.028Z,85.74
2022-08-10T03:45:54.844Z,85.64
2022-08-10T03:46:52.004Z,85.10
2022-08-10T03:47:50.997Z,84.79
2022-08-10T03:48:50.983Z,84.39
2022-08-10T03:49:50.956Z,83.84
2022-08-10T03:50:52.583Z,83.33
2022-08-10T03:51:50.940Z,83.13
2022-08-10T03:52:50.931Z,82.99
2022-08-10T03:54:02.805Z,82.89
2022-08-10T03:54:51.933Z,82.89
2022-08-10T03:56:28.289Z,82.79
2022-08-10T03:56:51.878Z,82.69
2022-08-10T03:57:50.869Z,83.13
2022-08-10T03:58:50.879Z,83.54
2022-08-10T03:59:50.869Z,83.64
2022-08-10T04:00:50.855Z,83.44
2022-08-10T04:02:41.574Z,83.54
2022-08-10T04:02:51.879Z,83.09
2022-08-10T04:03:50.777Z,82.69
2022-08-10T04:04:51.779Z,82.49
2022-08-10T04:05:50.757Z,82.62
2022-08-10T04:06:51.263Z,83.23
2022-08-10T04:07:50.728Z,84.08
2022-08-10T04:08:50.720Z,83.98
2022-08-10T04:09:54.354Z,84.53
2022-08-10T04:10:51.699Z,84.73
2022-08-10T04:11:50.704Z,85.13
2022-08-10T04:12:50.844Z,85.44
2022-08-10T04:13:50.650Z,85.44
2022-08-10T04:14:52.759Z,85.03
2022-08-10T04:15:50.642Z,84.48
2022-08-10T04:16:50.640Z,84.59
2022-08-10T04:17:59.381Z,84.59
2022-08-10T04:18:51.578Z,84.73
2022-08-10T04:19:50.588Z,85.13
2022-08-10T04:20:50.633Z,85.64
2022-08-10T04:21:50.540Z,85.88
2022-08-10T04:22:50.552Z,86.08
2022-08-10T04:23:53.242Z,86.19
2022-08-10T04:24:50.519Z,86.33
2022-08-10T04:25:50.492Z,86.49
2022-08-10T04:26:50.502Z,85.99
2022-08-10T04:27:50.465Z,85.24
2022-08-10T04:28:50.451Z,85.27
2022-08-10T04:29:50.444Z,85.58
2022-08-10T04:30:50.432Z,85.68
2022-08-10T04:31:50.413Z,85.78
2022-08-10T04:32:50.416Z,85.68
2022-08-10T04:33:50.391Z,86.29
2022-08-10T04:34:50.373Z,86.83
2022-08-10T04:35:50.401Z,87.04
2022-08-10T04:36:50.472Z,87.34
2022-08-10T04:37:50.341Z,88.05
2022-08-10T04:38:50.334Z,88.46
2022-08-10T04:39:50.355Z,88.25
2022-08-10T04:40:50.342Z,88.25
2022-08-10T04:41:50.283Z,88.56
2022-08-10T04:42:50.270Z,88.05
2022-08-10T04:43:50.289Z,88.56
2022-08-10T04:44:50.244Z,88.01
2022-08-10T04:45:51.879Z,87.40
2022-08-10T04:46:57.917Z,87.51
2022-08-10T04:48:00.727Z,87.16
2022-08-10T04:49:01.481Z,86.96
2022-08-10T04:49:55.004Z,86.76
2022-08-10T04:50:51.190Z,86.41
2022-08-10T04:51:50.150Z,85.80
2022-08-10T04:52:50.162Z,85.16
2022-08-10T04:54:05.578Z,84.65
2022-08-10T04:54:51.141Z,84.00
2022-08-10T04:55:50.092Z,84.04
2022-08-10T04:56:50.078Z,84.14
2022-08-10T04:57:50.087Z,84.34
2022-08-10T04:58:50.065Z,84.45
2022-08-10T04:59:50.054Z,84.45
2022-08-10T05:00:50.121Z,84.41
2022-08-10T05:02:22.059Z,84.20
2022-08-10T05:02:51.015Z,83.90
2022-08-10T05:04:34.658Z,83.46
2022-08-10T05:04:50.991Z,83.15
2022-08-10T05:05:49.964Z,82.95
2022-08-10T05:06:49.954Z,82.85
2022-08-10T05:07:53.887Z,82.75
2022-08-10T05:08:50.946Z,82.71
2022-08-10T05:10:03.125Z,82.41
2022-08-10T05:10:50.896Z,82.31
2022-08-10T05:11:49.906Z,82.31
2022-08-10T05:12:49.885Z,82.21
2022-08-10T05:13:49.866Z,81.96
2022-08-10T05:14:49.924Z,81.87
2022-08-10T05:15:49.844Z,82.01
2022-08-10T05:16:49.827Z,82.21
2022-08-10T05:18:06.881Z,82.21
2022-08-10T05:18:50.806Z,82.10
2022-08-10T05:20:03.684Z,81.96
2022-08-10T05:20:50.818Z,81.96
2022-08-10T05:22:03.511Z,81.87
2022-08-10T05:22:50.736Z,81.56
2022-08-10T05:23:49.726Z,81.56
2022-08-10T05:24:49.714Z,81.56
2022-08-10T05:25:49.697Z,81.56
2022-08-10T05:27:00.375Z,81.87
2022-08-10T05:27:52.380Z,82.07
2022-08-10T05:28:49.668Z,82.37
2022-08-10T05:30:01.486Z,82.27
2022-08-10T05:30:50.647Z,82.07
2022-08-10T05:31:49.664Z,81.82
2022-08-10T05:32:57.716Z,81.73
2022-08-10T05:33:50.604Z,81.62
2022-08-10T05:34:49.597Z,81.42
2022-08-10T05:35:57.484Z,81.12
2022-08-10T05:36:50.581Z,80.88
2022-08-10T05:38:12.929Z,80.78
2022-08-10T05:38:50.530Z,80.88
2022-08-10T05:39:49.581Z,80.88
2022-08-10T05:40:49.528Z,80.88
2022-08-10T05:41:52.847Z,80.78
2022-08-10T05:42:49.481Z,80.44
2022-08-10T05:43:49.470Z,80.33
2022-08-10T05:44:49.460Z,80.47
2022-08-10T05:46:18.718Z,80.88
2022-08-10T05:46:50.447Z,81.28
2022-08-10T05:48:54.365Z,81.68
2022-08-10T05:48:58.977Z,81.68
2022-08-10T05:49:50.400Z,81.48
2022-08-10T05:50:49.378Z,81.48
2022-08-10T05:51:49.389Z,82.09
2022-08-10T05:52:49.348Z,82.33
2022-08-10T05:54:01.558Z,82.93
2022-08-10T05:54:50.338Z,83.04
2022-08-10T05:55:49.310Z,83.44
2022-08-10T05:56:54.192Z,83.74
2022-08-10T05:57:50.313Z,83.84
2022-08-10T05:58:49.282Z,83.54
2022-08-10T06:00:34.770Z,83.10
2022-08-10T06:00:50.573Z,82.70
2022-08-10T06:02:31.478Z,82.59
2022-08-10T06:02:50.229Z,82.39
2022-08-10T06:03:49.221Z,82.50
2022-08-10T06:04:49.200Z,82.39
2022-08-10T06:05:49.190Z,82.39
2022-08-10T06:06:49.191Z,82.25
2022-08-10T06:07:49.187Z,81.55
2022-08-10T06:08:49.186Z,80.80
2022-08-10T06:09:58.610Z,80.10
2022-08-10T06:12:16.744Z,79.56
2022-08-10T06:12:24.505Z,78.96
2022-08-10T06:12:54.847Z,78.51
2022-08-10T06:13:59.824Z,77.77
2022-08-10T06:14:53.077Z,77.57
2022-08-10T06:15:51.989Z,77.17
2022-08-10T06:16:49.054Z,76.87
2022-08-10T06:18:01.579Z,77.07
2022-08-10T06:18:50.067Z,77.07
2022-08-10T06:19:48.995Z,77.07
2022-08-10T06:20:48.992Z,77.27
2022-08-10T06:22:01.377Z,77.17
2022-08-10T06:22:49.954Z,77.47
2022-08-10T06:23:48.943Z,77.67
2022-08-10T06:25:21.512Z,77.87
2022-08-10T06:26:09.751Z,77.47
2022-08-10T06:26:49.905Z,77.37
2022-08-10T06:27:48.893Z,76.93
2022-08-10T06:28:54.029Z,76.83
2022-08-10T06:29:49.874Z,76.73
2022-08-10T06:30:48.852Z,77.03
2022-08-10T06:31:49.975Z,77.23
2022-08-10T06:32:48.824Z,77.23
2022-08-10T06:33:48.818Z,77.53
2022-08-10T06:34:48.844Z,77.87
2022-08-10T06:35:48.813Z,77.63
2022-08-10T06:36:48.791Z,77.83
2022-08-10T06:37:51.651Z,77.97
2022-08-10T06:38:48.756Z,78.03
2022-08-10T06:39:48.778Z,77.73
2022-08-10T06:40:48.727Z,77.63
2022-08-10T06:42:14.349Z,77.43
2022-08-10T06:42:49.688Z,77.00
2022-08-10T06:43:48.684Z,76.59
2022-08-10T06:44:48.655Z,76.39
2022-08-10T06:46:07.317Z,76.05
2022-08-10T06:46:49.644Z,75.55
2022-08-10T06:47:48.618Z,75.01
2022-08-10T06:48:48.616Z,74.71
2022-08-10T06:49:48.598Z,74.71
2022-08-10T06:50:58.193Z,74.61
2022-08-10T06:51:57.148Z,74.41
2022-08-10T06:52:49.595Z,74.41
2022-08-10T06:53:53.664Z,74.11
2022-08-10T06:54:49.539Z,74.18
2022-08-10T06:55:55.478Z,73.77
2022-08-10T06:57:08.279Z,73.57
2022-08-10T06:57:59.992Z,73.87
2022-08-10T06:58:49.594Z,73.44
2022-08-10T06:59:49.089Z,72.63
2022-08-10T07:00:48.561Z,72.53
2022-08-10T07:01:51.130Z,72.74
2022-08-10T07:02:48.479Z,72.80
2022-08-10T07:03:48.416Z,72.30
2022-08-10T07:04:48.406Z,71.16
2022-08-10T07:05:51.222Z,71.06
2022-08-10T07:06:48.383Z,70.89
2022-08-10T07:07:48.367Z,71.36
2022-08-10T07:08:48.410Z,70.86
2022-08-10T07:09:48.338Z,70.56
2022-08-10T07:10:48.338Z,70.32
2022-08-10T07:11:48.311Z,69.73
2022-08-10T07:12:48.311Z,69.82
2022-08-10T07:14:16.432Z,68.92
2022-08-10T07:14:49.318Z,69.12
2022-08-10T07:15:58.238Z,68.69
2022-08-10T07:16:49.251Z,68.69
2022-08-10T07:17:48.226Z,68.79
2022-08-10T07:18:48.240Z,68.55
2022-08-10T07:19:49.510Z,68.16
2022-08-10T07:20:48.231Z,68.16
2022-08-10T07:21:48.181Z,67.63
2022-08-10T07:23:55.942Z,67.22
2022-08-10T07:23:58.805Z,67.19
2022-08-10T07:24:49.213Z,66.19
2022-08-10T07:25:48.133Z,66.29
2022-08-10T07:26:48.142Z,65.89
2022-08-10T07:27:59.728Z,65.89
2022-08-10T07:28:49.093Z,65.36
2022-08-10T07:29:54.385Z,65.56
2022-08-10T07:30:49.070Z,65.56
2022-08-10T07:31:56.929Z,65.26
2022-08-10T07:32:49.032Z,64.03
2022-08-10T07:33:48.034Z,63.86
2022-08-10T07:34:48.013Z,64.23
2022-08-10T07:35:48.031Z,64.23
2022-08-10T07:36:47.985Z,63.63
2022-08-10T07:37:47.962Z,63.63
2022-08-10T07:38:47.953Z,63.40
2022-08-10T07:39:57.856Z,62.90
2022-08-10T07:40:48.947Z,62.81
2022-08-10T07:41:47.914Z,62.70
2022-08-10T07:42:47.904Z,62.90
2022-08-10T07:43:47.886Z,62.40
2022-08-10T07:44:47.884Z,62.50
2022-08-10T07:45:47.877Z,62.70
2022-08-10T07:46:47.905Z,61.77
2022-08-10T07:47:53.444Z,61.68
2022-08-10T07:49:44.125Z,0.00
2022-08-10T07:50:44.894Z,0.00
2022-08-10T07:51:44.087Z,0.00
2022-08-10T07:52:44.075Z,0.00
2022-08-10T07:53:44.035Z,0.00
2022-08-10T07:54:44.044Z,0.00
2022-08-10T07:56:01.729Z,0.00
2022-08-10T07:56:49.387Z,0.00
2022-08-10T07:57:43.990Z,0.00
2022-08-10T07:58:46.305Z,0.00
2022-08-10T07:59:44.995Z,0.00
2022-08-10T08:00:43.966Z,0.00
2022-08-10T08:01:44.044Z,0.00
2022-08-10T08:02:43.937Z,0.00
2022-08-10T08:03:43.928Z,0.00
2022-08-10T08:04:43.917Z,0.00
2022-08-10T08:05:59.054Z,0.00
2022-08-10T08:06:44.876Z,0.00
2022-08-10T08:07:43.855Z,0.00
2022-08-10T08:08:43.845Z,0.00
2022-08-10T08:09:58.332Z,0.00
2022-08-10T08:10:44.835Z,0.00
2022-08-10T08:11:43.839Z,0.00
2022-08-10T08:12:43.797Z,0.00
2022-08-10T08:13:43.789Z,0.00
2022-08-10T08:14:43.776Z,0.00
2022-08-10T08:16:18.226Z,0.00
2022-08-10T08:16:44.801Z,0.00
2022-08-10T08:17:43.749Z,0.00
2022-08-10T08:18:54.252Z,0.00
2022-08-10T08:19:46.144Z,0.00
2022-08-10T08:20:44.711Z,0.00
2022-08-10T08:24:07.233Z,0.00
2022-08-10T08:24:10.890Z,0.00
2022-08-10T08:24:15.478Z,0.00
2022-08-10T08:24:44.649Z,0.00
2022-08-10T08:25:43.630Z,0.00
2022-08-10T08:26:43.662Z,0.00
2022-08-10T08:27:47.644Z,0.00
2022-08-10T08:28:43.593Z,0.00
2022-08-10T08:29:43.579Z,0.00
2022-08-10T08:30:48.386Z,0.00
2022-08-10T08:31:59.179Z,0.00
2022-08-10T08:32:44.543Z,0.00
2022-08-10T08:33:43.543Z,0.00
2022-08-10T08:34:43.544Z,0.00
2022-08-10T08:35:43.502Z,0.00
2022-08-10T08:36:43.493Z,0.00
2022-08-10T08:38:32.298Z,0.00
2022-08-10T08:38:44.481Z,0.00
2022-08-10T08:39:44.194Z,0.00
2022-08-10T08:40:43.442Z,0.00
2022-08-10T08:41:43.429Z,0.00
2022-08-10T08:42:43.424Z,0.00
2022-08-10T08:43:43.403Z,0.00
2022-08-10T08:44:43.403Z,0.00
2022-08-10T08:46:00.684Z,0.00
2022-08-10T08:46:44.360Z,0.00
2022-08-10T08:48:03.766Z,0.00
2022-08-10T08:48:44.402Z,0.00
2022-08-10T08:50:08.561Z,0.00
2022-08-10T08:50:44.319Z,0.00
2022-08-10T08:52:09.871Z,0.00
2022-08-10T08:52:44.296Z,0.00
2022-08-10T08:54:02.142Z,0.00
2022-08-10T08:54:44.286Z,0.00
2022-08-10T08:56:00.776Z,0.00
2022-08-10T08:56:48.281Z,0.00
2022-08-10T08:57:49.444Z,0.00
2022-08-10T08:58:44.217Z,0.00
2022-08-10T08:59:43.206Z,0.00
2022-08-10T09:00:43.206Z,0.00
2022-08-10T09:01:43.234Z,0.00
2022-08-10T09:02:43.156Z,0.00
2022-08-10T09:03:43.137Z,0.00
2022-08-10T09:04:43.195Z,0.00
2022-08-10T09:05:58.782Z,0.00
2022-08-10T09:06:44.118Z,0.00
2022-08-10T09:08:02.009Z,0.00
2022-08-10T09:08:44.078Z,0.00
2022-08-10T09:09:43.067Z,0.00
2022-08-10T09:10:43.076Z,0.00
2022-08-10T09:11:43.079Z,0.00
2022-08-10T09:12:43.040Z,0.00
2022-08-10T09:13:43.030Z,0.00
2022-08-10T09:14:43.010Z,0.00
2022-08-10T09:15:43.010Z,0.00
2022-08-10T09:16:42.993Z,0.00
2022-08-10T09:17:42.981Z,0.00
2022-08-10T09:18:42.972Z,0.00
2022-08-10T09:19:42.940Z,0.00
2022-08-10T09:20:42.939Z,0.00
2022-08-10T09:21:43.205Z,0.00
2022-08-10T09:22:43.920Z,0.00
2022-08-10T09:24:04.524Z,0.00
2022-08-10T09:24:43.890Z,0.00
2022-08-10T09:25:42.860Z,0.00
2022-08-10T09:26:42.862Z,0.00
2022-08-10T09:27:43.250Z,0.00
2022-08-10T09:28:42.840Z,0.00
2022-08-10T09:29:42.812Z,0.00
2022-08-10T09:31:03.733Z,0.00
2022-08-10T09:33:05.530Z,0.00
2022-08-10T09:36:15.760Z,0.00
2022-08-10T09:36:19.622Z,0.00
2022-08-10T09:36:24.755Z,0.00
2022-08-10T09:36:26.785Z,0.00
2022-08-10T09:36:43.747Z,0.00
2022-08-10T09:38:00.981Z,0.00
2022-08-10T09:38:43.713Z,0.00
2022-08-10T09:40:56.953Z,0.00
2022-08-10T09:41:00.577Z,0.00
2022-08-10T09:41:43.712Z,0.00
2022-08-10T09:42:42.645Z,0.00
2022-08-10T09:43:42.647Z,0.00
2022-08-10T09:44:57.426Z,0.00
2022-08-10T09:45:43.607Z,0.00
2022-08-10T09:46:42.616Z,0.00
2022-08-10T09:48:01.100Z,0.00
2022-08-10T09:48:43.581Z,0.00
2022-08-10T09:49:54.775Z,0.00
2022-08-10T09:51:22.767Z,0.00
2022-08-10T09:51:46.261Z,0.00
2022-08-10T09:52:42.518Z,0.00
2022-08-10T09:53:42.502Z,0.00
2022-08-10T09:54:42.490Z,0.00
2022-08-10T09:56:17.359Z,0.00
2022-08-10T09:56:43.490Z,0.00
2022-08-10T09:57:46.317Z,0.00
2022-08-10T09:58:42.497Z,0.00
2022-08-10T10:00:01.386Z,0.00
2022-08-10T10:00:43.431Z,0.00
2022-08-10T10:01:58.498Z,0.00
2022-08-10T10:02:43.403Z,0.00
2022-08-10T10:03:42.450Z,0.00
2022-08-10T10:04:42.369Z,0.00
2022-08-10T10:05:51.117Z,0.00
2022-08-10T10:06:43.349Z,0.00
2022-08-10T10:07:42.520Z,0.00
2022-08-10T10:08:43.196Z,0.00
2022-08-10T10:09:42.303Z,0.00
2022-08-10T10:10:47.425Z,0.00
2022-08-10T10:11:43.280Z,0.00
2022-08-10T10:12:42.272Z,0.00
2022-08-10T10:14:02.730Z,0.00
2022-08-10T10:14:43.252Z,0.00
2022-08-10T10:15:42.242Z,0.00
2022-08-10T10:16:42.224Z,0.00
2022-08-10T10:17:42.205Z,0.00
2022-08-10T10:18:42.220Z,0.00
2022-08-10T10:19:42.278Z,0.00
2022-08-10T10:20:42.173Z,0.00
2022-08-10T10:21:55.468Z,0.00
2022-08-10T10:22:43.143Z,0.00
2022-08-10T10:23:42.130Z,0.00
2022-08-10T10:24:42.116Z,0.00
2022-08-10T10:25:51.050Z,0.00
2022-08-10T10:26:43.091Z,0.00
2022-08-10T10:27:42.081Z,0.00
2022-08-10T10:29:19.675Z,0.00
2022-08-10T10:29:57.975Z,0.00
2022-08-10T10:30:43.053Z,0.00
2022-08-10T10:31:42.034Z,0.00
2022-08-10T10:32:42.014Z,0.00
2022-08-10T10:33:42.004Z,0.00
2022-08-10T10:34:41.996Z,0.00
2022-08-10T10:35:41.999Z,0.00
2022-08-10T10:36:41.979Z,0.00
2022-08-10T10:38:02.013Z,0.00
2022-08-10T10:38:42.949Z,0.00
2022-08-10T10:39:42.007Z,0.00
2022-08-10T10:40:41.905Z,0.00
2022-08-10T10:41:56.027Z,0.00
2022-08-10T10:42:45.349Z,0.00
2022-08-10T10:43:42.193Z,0.00
2022-08-10T10:44:42.514Z,0.00
2022-08-10T10:45:42.166Z,0.00
2022-08-10T10:46:42.859Z,0.00
2022-08-10T10:47:42.627Z,0.00
2022-08-10T10:48:41.861Z,0.00
2022-08-10T10:49:41.808Z,0.00
2022-08-10T10:50:41.777Z,0.00
2022-08-10T10:51:41.757Z,0.00
2022-08-10T10:52:41.799Z,0.00
2022-08-10T10:53:41.737Z,0.00
2022-08-10T10:54:41.820Z,0.00
2022-08-10T10:56:13.349Z,0.00
2022-08-10T10:56:42.710Z,0.00
2022-08-10T10:57:59.416Z,0.00
2022-08-10T10:58:42.700Z,0.00
2022-08-10T10:59:55.284Z,0.00
2022-08-10T11:00:42.682Z,0.00
2022-08-10T11:01:41.678Z,0.00
2022-08-10T11:02:41.619Z,0.00
2022-08-10T11:03:41.617Z,0.00
2022-08-10T11:04:41.597Z,0.00
2022-08-10T11:05:41.611Z,0.00
2022-08-10T11:06:41.620Z,0.00
2022-08-10T11:07:41.654Z,0.00
2022-08-10T11:08:41.540Z,0.00
2022-08-10T11:10:07.884Z,0.00
2022-08-10T11:10:46.999Z,0.00
2022-08-10T11:12:01.941Z,0.00
2022-08-10T11:12:43.564Z,0.00
2022-08-10T11:14:25.529Z,0.00
2022-08-10T11:14:42.480Z,0.00
2022-08-10T11:15:42.812Z,0.00
2022-08-10T11:16:42.513Z,0.00
2022-08-10T11:17:41.455Z,0.00
2022-08-10T11:18:41.443Z,0.00
2022-08-10T11:20:02.623Z,0.00
2022-08-10T11:20:42.398Z,0.00
2022-08-10T11:21:41.384Z,0.00
2022-08-10T11:22:41.423Z,0.00
2022-08-10T11:23:41.363Z,0.00
2022-08-10T11:24:48.124Z,0.00
2022-08-10T11:25:42.334Z,0.00
2022-08-10T11:26:41.319Z,0.00
2022-08-10T11:27:41.317Z,0.00
2022-08-10T11:28:41.315Z,0.00
2022-08-10T11:29:45.323Z,0.00
2022-08-10T11:30:42.278Z,0.00
2022-08-10T11:31:41.267Z,0.00
2022-08-10T11:32:41.255Z,0.00
2022-08-10T11:34:48.341Z,0.00
2022-08-10T11:35:42.216Z,0.00
2022-08-10T11:36:41.207Z,0.00
2022-08-10T11:38:31.957Z,0.00
2022-08-10T11:39:04.021Z,0.00
2022-08-10T11:39:49.499Z,0.00
2022-08-10T11:40:42.145Z,0.00
2022-08-10T11:42:11.751Z,0.00
2022-08-10T11:42:42.141Z,0.00
2022-08-10T11:43:41.127Z,0.00
2022-08-10T11:44:41.119Z,0.00
2022-08-10T11:45:51.547Z,0.00
2022-08-10T11:46:42.079Z,0.00
2022-08-10T11:47:41.062Z,0.00
2022-08-10T11:48:54.289Z,0.00
2022-08-10T11:49:42.050Z,0.00
2022-08-10T11:50:41.079Z,0.00
2022-08-10T11:51:41.029Z,0.00
2022-08-10T11:52:40.999Z,0.00
2022-08-10T11:53:40.990Z,0.00
2022-08-10T11:54:41.005Z,0.00
2022-08-10T11:55:40.984Z,0.00
2022-08-10T11:56:40.951Z,0.00
2022-08-10T11:57:54.389Z,0.00
2022-08-10T11:58:41.921Z,0.00
2022-08-10T11:59:40.914Z,0.00
2022-08-10T12:00:40.892Z,0.00
2022-08-10T12:01:40.900Z,0.00
2022-08-10T12:02:41.131Z,0.00
2022-08-10T12:03:40.864Z,0.00
2022-08-10T12:04:40.863Z,0.00
2022-08-10T12:05:53.993Z,0.00
2022-08-10T12:06:55.073Z,0.00
2022-08-10T12:10:01.545Z,0.00
2022-08-10T12:10:04.072Z,0.00
2022-08-10T12:10:09.981Z,0.00
2022-08-10T12:10:41.796Z,0.00
2022-08-10T12:11:40.766Z,0.00
2022-08-10T12:12:40.746Z,0.00
2022-08-10T12:13:49.884Z,0.00
2022-08-10T12:14:41.735Z,0.00
2022-08-10T12:15:40.705Z,0.00
2022-08-10T12:16:40.779Z,0.00
2022-08-10T12:17:40.686Z,0.00
2022-08-10T12:18:40.674Z,0.00
2022-08-10T12:19:59.055Z,0.00
2022-08-10T12:20:41.637Z,0.00
2022-08-10T12:21:40.667Z,0.00
2022-08-10T12:22:40.629Z,0.00
2022-08-10T12:23:40.617Z,0.00
2022-08-10T12:24:40.605Z,0.00
2022-08-10T12:25:56.986Z,0.00
2022-08-10T12:26:41.577Z,0.00
2022-08-10T12:27:40.568Z,0.00
2022-08-10T12:28:51.545Z,0.00
2022-08-10T12:29:41.570Z,0.00
2022-08-10T12:30:40.515Z,0.00
2022-08-10T12:31:40.519Z,0.00
2022-08-10T12:32:40.490Z,0.00
2022-08-10T12:34:01.389Z,0.00
2022-08-10T12:34:41.490Z,0.00
2022-08-10T12:35:51.623Z,0.00
2022-08-10T12:36:41.476Z,0.00
2022-08-10T12:37:40.450Z,0.00
2022-08-10T12:38:40.433Z,0.00
2022-08-10T12:39:40.477Z,0.00
2022-08-10T12:40:40.447Z,0.00
2022-08-10T12:41:44.581Z,0.00
2022-08-10T12:42:41.081Z,0.00
2022-08-10T12:44:06.842Z,0.00
2022-08-10T12:44:42.771Z,0.00
2022-08-10T12:45:40.334Z,0.00
2022-08-10T12:46:40.325Z,0.00
2022-08-10T12:47:40.319Z,0.00
2022-08-10T12:48:40.329Z,0.00
2022-08-10T12:49:40.281Z,0.00
2022-08-10T12:50:41.273Z,0.00
2022-08-10T12:51:40.273Z,0.00
2022-08-10T12:52:41.245Z,0.00
2022-08-10T12:53:40.227Z,0.00
2022-08-10T12:54:40.253Z,0.00
2022-08-10T12:55:40.216Z,0.00
2022-08-10T12:56:40.243Z,0.00
2022-08-10T12:57:40.197Z,0.00
2022-08-10T12:58:59.616Z,0.00
2022-08-10T12:59:43.350Z,0.00
2022-08-10T13:00:59.604Z,0.00
2022-08-10T13:02:06.551Z,0.00
2022-08-10T13:02:45.212Z,0.00
2022-08-10T13:04:21.826Z,0.00
2022-08-10T13:04:41.087Z,0.00